This is the latest recevied weather packets stored in our database for station/object DH1FR-13. If no packets are shown the sender has not sent any weather packets the latest 10 day(s).
| Time | Temp. | Humidity | Pressure | Rain* | Wind** | Luminosity | Snow |
|---|---|---|---|---|---|---|---|
| 1787563201 | 17.78° C | 64% | 1025.9 hPa | 0 mm | 0 m/s | - | - |
| 1787562601 | 17.78° C | 66% | 1026.2 hPa | 0 mm | 0 m/s | - | - |
| 1787562001 | 17.78° C | 65% | 1025.9 hPa | 0 mm | 0 m/s | - | - |
| 1787561400 | 17.22° C | 67% | 1026.2 hPa | 0 mm | 0 m/s | - | - |
| 1787560800 | 17.22° C | 69% | 1026.1 hPa | 0 mm | 0 m/s | - | - |
| 1787560201 | 16.67° C | 73% | 1026.3 hPa | 0 mm | 0 m/s | - | - |
| 1787559601 | 15.56° C | 76% | 1026 hPa | 0 mm | 0 m/s | - | - |
| 1787559001 | 15.56° C | 75% | 1026.3 hPa | 0 mm | 0 m/s | - | - |
| 1787558400 | 15° C | 76% | 1026.6 hPa | 0 mm | 0 m/s | - | - |
| 1787557800 | 13.89° C | 78% | 1026.5 hPa | 0 mm | 0 m/s | - | - |
| 1787557200 | 13.89° C | 79% | 1026.6 hPa | 0 mm | 0 m/s | - | - |
| 1787556601 | 13.33° C | 81% | 1026.5 hPa | 0 mm | 0 m/s | - | - |
| 1787556000 | 13.89° C | 80% | 1026.9 hPa | 0 mm | 0 m/s | - | - |
| 1787555400 | 12.78° C | 81% | 1026.6 hPa | 0 mm | 0 m/s | - | - |
| 1787554801 | 12.78° C | 81% | 1026.7 hPa | 0 mm | 0 m/s | - | - |
| 1787554201 | 11.67° C | 84% | 1026.6 hPa | 0 mm | 0 m/s | - | - |
| 1787553600 | 11.11° C | 85% | 1026.7 hPa | 0 mm | 0 m/s | - | - |
| 1787553000 | 10.56° C | 86% | 1026.7 hPa | 0 mm | 0 m/s | - | - |
| 1787552401 | 10° C | 90% | 1026.3 hPa | 0 mm | 0 m/s | - | - |
| 1787551801 | 8.33° C | 99% | 1026.8 hPa | 0 mm | 0 m/s | - | - |
| 1787551201 | 8.33° C | 99% | 1026.6 hPa | 0 mm | 0 m/s | - | - |
| 1787550601 | 6.11° C | 99% | 1026.8 hPa | 0 mm | 0 m/s | - | - |
| 1787550001 | 5.56° C | 99% | 1026.8 hPa | 0 mm | 0 m/s | - | - |
| 1787549401 | 5.56° C | 99% | 1026.6 hPa | 0 mm | 0 m/s | - | - |
| 1787548801 | 5.56° C | 99% | 1026.6 hPa | 0 mm | 0 m/s | - | - |
* Rain latest hour (hover to see other rain measurements)
** Current wind speed in m/s (hover to see current wind gust speed)